createdAt,value
2022-08-17T00:00:42.757Z,87419.28
2022-08-17T00:03:14.512Z,87422.47
2022-08-17T00:05:50.670Z,87425.13
2022-08-17T00:08:22.890Z,87422.13
2022-08-17T00:10:51.434Z,87416.41
2022-08-17T00:13:32.930Z,87418.03
2022-08-17T00:16:12.175Z,87419.25
2022-08-17T00:18:53.894Z,87416.59
2022-08-17T00:22:29.989Z,87417.41
2022-08-17T00:24:16.389Z,87420.13
2022-08-17T00:30:53.869Z,87416.66
2022-08-17T00:33:30.684Z,87422.75
2022-08-17T00:39:57.974Z,87426.44
2022-08-17T00:42:30.354Z,87425.59
2022-08-17T00:44:58.819Z,87428.00
2022-08-17T00:47:26.372Z,87428.75
2022-08-17T00:49:53.651Z,87436.44
2022-08-17T00:52:30.213Z,87431.16
2022-08-17T00:54:59.095Z,87431.66
2022-08-17T00:57:42.165Z,87430.16
2022-08-17T01:00:26.112Z,87429.84
2022-08-17T01:03:02.353Z,87435.19
2022-08-17T01:05:34.119Z,87438.25
2022-08-17T01:08:02.771Z,87434.50
2022-08-17T01:10:58.416Z,87436.06
2022-08-17T01:13:30.764Z,87437.38
2022-08-17T01:19:57.778Z,87438.63
2022-08-17T01:22:26.089Z,87431.75
2022-08-17T01:25:00.796Z,87428.72
2022-08-17T01:27:29.202Z,87421.91
2022-08-17T01:30:05.374Z,87421.50
2022-08-17T01:32:52.568Z,87421.50
2022-08-17T01:35:20.190Z,87419.94
2022-08-17T01:37:47.416Z,87415.03
2022-08-17T01:40:35.225Z,87412.06
2022-08-17T01:43:14.664Z,87418.50
2022-08-17T01:45:47.904Z,87404.50
2022-08-17T01:48:36.592Z,87406.13
2022-08-17T01:51:06.949Z,87398.19
2022-08-17T01:53:44.442Z,87394.78
2022-08-17T01:56:17.124Z,87402.50
2022-08-17T01:58:46.017Z,87399.84
2022-08-17T02:01:15.728Z,87400.22
2022-08-17T02:03:53.455Z,87397.97
2022-08-17T02:06:43.954Z,87396.19
2022-08-17T02:09:17.070Z,87396.56
2022-08-17T02:11:46.292Z,87395.50
2022-08-17T02:14:14.461Z,87398.53
2022-08-17T02:16:42.144Z,87396.34
2022-08-17T02:19:15.767Z,87400.53
2022-08-17T02:21:48.313Z,87401.31
2022-08-17T02:24:58.909Z,87407.06
2022-08-17T02:27:19.558Z,87406.75
2022-08-17T02:29:46.757Z,87404.91
2022-08-17T02:32:28.045Z,87403.75
2022-08-17T02:35:01.295Z,87407.16
2022-08-17T02:37:30.389Z,87403.41
2022-08-17T02:39:58.988Z,87404.25
2022-08-17T02:42:40.489Z,87404.75
2022-08-17T02:49:17.230Z,87393.53
2022-08-17T02:51:44.519Z,87398.09
2022-08-17T02:54:40.471Z,87383.28
2022-08-17T02:56:59.022Z,87380.28
2022-08-17T02:59:26.302Z,87385.31
2022-08-17T03:01:53.635Z,87384.56
2022-08-17T03:04:20.996Z,87385.34
2022-08-17T03:06:48.445Z,87388.75
2022-08-17T03:09:15.633Z,87392.56
2022-08-17T03:11:43.372Z,87397.16
2022-08-17T03:14:10.693Z,87402.84
2022-08-17T03:16:37.919Z,87403.25
2022-08-17T03:19:06.471Z,87404.41
2022-08-17T03:25:37.276Z,87406.13
2022-08-17T03:28:07.030Z,87404.22
2022-08-17T03:34:44.281Z,87397.78
2022-08-17T03:37:11.466Z,87398.59
2022-08-17T03:39:39.145Z,87381.84
2022-08-17T03:42:32.331Z,87386.38
2022-08-17T03:45:16.685Z,87384.91
2022-08-17T03:47:44.124Z,87385.66
2022-08-17T03:54:21.313Z,87407.06
2022-08-17T04:06:07.439Z,87413.66
2022-08-17T04:08:34.757Z,87417.84
2022-08-17T04:15:12.664Z,87418.72
2022-08-17T04:17:40.627Z,87425.56
2022-08-17T04:23:50.145Z,87414.28
2022-08-17T04:26:52.170Z,87411.63
2022-08-17T04:33:07.100Z,87422.75
2022-08-17T04:35:43.831Z,87428.44
2022-08-17T04:38:19.072Z,87431.84
2022-08-17T04:40:47.408Z,87430.72
2022-08-17T04:43:19.018Z,87428.84
2022-08-17T04:45:54.871Z,87437.16
2022-08-17T04:59:47.868Z,87430.06
2022-08-17T05:02:15.562Z,87428.13
2022-08-17T05:04:43.222Z,87431.13
2022-08-17T05:10:52.598Z,87434.59
2022-08-17T05:17:07.363Z,87443.28
2022-08-17T05:19:38.962Z,87442.47
2022-08-17T05:22:06.830Z,87437.56
2022-08-17T05:24:42.660Z,87429.59
2022-08-17T05:27:15.080Z,87433.00
2022-08-17T05:29:46.673Z,87431.09
2022-08-17T05:32:39.691Z,87427.31
2022-08-17T05:35:02.485Z,87429.97
2022-08-17T05:37:30.154Z,87427.66
2022-08-17T05:39:57.812Z,87424.22
2022-08-17T05:42:36.034Z,87424.22
2022-08-17T05:45:10.618Z,87420.81
2022-08-17T05:47:39.843Z,87412.41
2022-08-17T05:50:10.180Z,87414.22
2022-08-17T05:53:02.697Z,87416.47
2022-08-17T05:59:35.327Z,87411.91
2022-08-17T06:02:28.692Z,87405.41
2022-08-17T06:05:02.291Z,87413.31
2022-08-17T06:08:08.922Z,87408.66
2022-08-17T06:10:42.747Z,87406.25
2022-08-17T06:13:25.305Z,87409.88
2022-08-17T06:20:00.328Z,87406.97
2022-08-17T06:22:33.479Z,87411.75
2022-08-17T06:29:23.611Z,87412.56
2022-08-17T06:31:50.934Z,87415.44
2022-08-17T06:34:18.177Z,87415.28
2022-08-17T06:37:20.282Z,87418.16
2022-08-17T06:40:05.380Z,87425.56
2022-08-17T06:43:11.807Z,87415.84
2022-08-17T06:46:06.379Z,87421.38
2022-08-17T06:48:58.834Z,87419.63
2022-08-17T06:51:37.966Z,87420.50
2022-08-17T06:54:13.290Z,87418.09
2022-08-17T06:56:55.579Z,87415.56
2022-08-17T06:59:36.379Z,87413.03
2022-08-17T07:02:52.768Z,87416.59
2022-08-17T07:05:35.623Z,87417.84
2022-08-17T07:08:39.409Z,87416.81
2022-08-17T07:11:31.790Z,87414.25
2022-08-17T07:14:17.900Z,87415.53
2022-08-17T07:16:58.279Z,87408.06
2022-08-17T07:19:33.020Z,87413.16
2022-08-17T07:22:05.814Z,87420.09
2022-08-17T07:24:57.309Z,87416.84
2022-08-17T07:27:32.886Z,87411.25
2022-08-17T07:30:10.690Z,87417.06
2022-08-17T07:32:44.261Z,87411.13
2022-08-17T07:35:40.800Z,87405.53
2022-08-17T07:38:26.305Z,87400.75
2022-08-17T07:40:57.350Z,87397.84
2022-08-17T07:43:39.974Z,87408.69
2022-08-17T07:46:22.718Z,87404.66
2022-08-17T07:48:55.171Z,87396.00
2022-08-17T07:51:34.631Z,87396.13
2022-08-17T07:54:21.660Z,87393.19
2022-08-17T07:56:55.134Z,87398.66
2022-08-17T07:59:39.064Z,87396.13
2022-08-17T08:02:28.970Z,87398.03
2022-08-17T08:05:31.723Z,87400.22
2022-08-17T08:08:43.655Z,87401.53
2022-08-17T08:11:29.998Z,87403.25
2022-08-17T08:14:28.603Z,87397.69
2022-08-17T08:17:02.950Z,87400.38
2022-08-17T08:19:33.271Z,87399.41
2022-08-17T08:22:11.403Z,87403.38
2022-08-17T08:25:19.291Z,87389.88
2022-08-17T08:28:16.208Z,87389.19
2022-08-17T08:31:42.859Z,87382.44
2022-08-17T08:35:02.218Z,87384.91
2022-08-17T08:38:01.745Z,87375.88
2022-08-17T08:41:07.928Z,87387.88
2022-08-17T08:43:52.250Z,87386.16
2022-08-17T08:46:55.933Z,87377.44
2022-08-17T08:50:03.297Z,87371.38
2022-08-17T08:53:11.867Z,87369.84
2022-08-17T08:56:06.703Z,87380.63
2022-08-17T08:58:54.245Z,87381.59
2022-08-17T09:01:57.372Z,87378.88
2022-08-17T09:05:13.973Z,87376.09
2022-08-17T09:08:21.598Z,87360.03
2022-08-17T09:11:19.477Z,87356.22
2022-08-17T09:14:43.064Z,87371.81
2022-08-17T09:17:19.340Z,87366.78
2022-08-17T09:20:14.417Z,87369.22
2022-08-17T09:23:41.631Z,87379.25
2022-08-17T09:26:29.654Z,87387.81
2022-08-17T09:29:06.397Z,87385.59
2022-08-17T09:31:49.714Z,87386.94
2022-08-17T09:34:31.885Z,87380.69
2022-08-17T09:37:26.160Z,87380.59
2022-08-17T09:40:14.433Z,87383.88
2022-08-17T09:43:16.432Z,87375.56
2022-08-17T09:46:14.288Z,87363.19
2022-08-17T09:49:06.822Z,87360.84
2022-08-17T09:51:42.917Z,87371.44
2022-08-17T09:54:41.153Z,87378.94
2022-08-17T09:57:43.943Z,87372.72
2022-08-17T10:00:20.135Z,87380.78
2022-08-17T10:03:40.893Z,87378.25
2022-08-17T10:06:24.853Z,87374.06
2022-08-17T10:09:17.312Z,87371.81
2022-08-17T10:11:57.603Z,87376.47
2022-08-17T10:14:46.350Z,87377.09
2022-08-17T10:17:21.119Z,87376.19
2022-08-17T10:20:29.437Z,87378.13
2022-08-17T10:23:13.843Z,87357.38
2022-08-17T10:26:07.218Z,87348.81
2022-08-17T10:28:46.234Z,87351.31
2022-08-17T10:31:38.309Z,87350.69
2022-08-17T10:34:41.494Z,87355.44
2022-08-17T10:37:47.589Z,87344.94
2022-08-17T10:40:29.785Z,87342.44
2022-08-17T10:43:15.158Z,87349.25
2022-08-17T10:46:30.339Z,87346.00
2022-08-17T10:49:44.251Z,87362.03
2022-08-17T10:52:20.675Z,87365.03
2022-08-17T10:55:14.512Z,87359.75
2022-08-17T10:57:46.714Z,87357.50
2022-08-17T11:00:27.729Z,87359.81
2022-08-17T11:02:57.053Z,87362.09
2022-08-17T11:05:44.088Z,87372.47
2022-08-17T11:08:51.468Z,87375.09
2022-08-17T11:12:06.069Z,87378.88
2022-08-17T11:15:00.804Z,87392.78
2022-08-17T11:18:15.197Z,87389.31
2022-08-17T11:21:12.969Z,87387.75
2022-08-17T11:24:26.909Z,87376.63
2022-08-17T11:27:28.727Z,87372.78
2022-08-17T11:30:03.090Z,87360.09
2022-08-17T11:32:54.391Z,87362.50
2022-08-17T11:35:22.095Z,87363.81
2022-08-17T11:38:07.767Z,87363.00
2022-08-17T11:40:51.573Z,87352.34
2022-08-17T11:43:42.807Z,87363.00
2022-08-17T11:46:40.058Z,87359.41
2022-08-17T11:49:22.915Z,87363.81
2022-08-17T11:52:02.160Z,87363.06
2022-08-17T11:54:43.247Z,87360.88
2022-08-17T11:57:27.714Z,87357.69
2022-08-17T11:59:56.249Z,87362.19
2022-08-17T12:03:26.018Z,87364.31
2022-08-17T12:06:49.685Z,87360.56
2022-08-17T12:09:25.048Z,87361.91
2022-08-17T12:12:34.524Z,87367.31
2022-08-17T12:15:10.465Z,87372.34
2022-08-17T12:17:41.134Z,87369.53
2022-08-17T12:20:29.885Z,87369.81
2022-08-17T12:27:03.463Z,87365.81
2022-08-17T12:29:38.845Z,87364.25
2022-08-17T12:32:15.593Z,87363.97
2022-08-17T12:34:45.315Z,87362.28
2022-08-17T12:37:26.885Z,87357.88
2022-08-17T12:40:07.653Z,87365.88
2022-08-17T12:42:39.623Z,87372.38
2022-08-17T12:45:33.697Z,87378.03
2022-08-17T12:48:09.804Z,87376.41
2022-08-17T12:50:44.805Z,87377.84
2022-08-17T12:53:24.092Z,87370.59
2022-08-17T12:59:32.624Z,87381.88
2022-08-17T13:02:01.278Z,87377.16
2022-08-17T13:04:29.725Z,87379.41
2022-08-17T13:06:59.937Z,87380.09
2022-08-17T13:09:36.038Z,87373.25
2022-08-17T13:12:08.704Z,87375.22
2022-08-17T13:14:35.996Z,87367.75
2022-08-17T13:17:07.158Z,87365.72
2022-08-17T13:19:49.525Z,87359.28
2022-08-17T13:22:22.655Z,87362.56
2022-08-17T13:24:54.821Z,87360.06
2022-08-17T13:27:25.949Z,87360.69
2022-08-17T13:30:08.079Z,87358.88
2022-08-17T13:32:44.312Z,87359.44
2022-08-17T13:35:39.435Z,87361.72
2022-08-17T13:38:32.632Z,87358.22
2022-08-17T13:40:59.860Z,87358.38
2022-08-17T13:43:46.475Z,87356.69
2022-08-17T13:46:30.357Z,87354.53
2022-08-17T13:49:06.025Z,87345.53
2022-08-17T13:51:44.519Z,87349.94
2022-08-17T13:54:35.415Z,87348.50
2022-08-17T13:57:19.533Z,87345.59
2022-08-17T13:59:54.867Z,87351.91
2022-08-17T14:02:25.999Z,87346.09
2022-08-17T14:04:57.590Z,87346.22
2022-08-17T14:07:34.845Z,87348.47
2022-08-17T14:10:17.797Z,87340.41
2022-08-17T14:12:46.103Z,87346.22
2022-08-17T14:15:18.832Z,87344.38
2022-08-17T14:17:47.556Z,87347.72
2022-08-17T14:20:17.328Z,87341.97
2022-08-17T14:22:48.758Z,87340.38
2022-08-17T14:25:23.139Z,87339.63
2022-08-17T14:27:53.793Z,87338.78
2022-08-17T14:30:28.964Z,87336.34
2022-08-17T14:32:59.670Z,87344.56
2022-08-17T14:35:27.143Z,87340.13
2022-08-17T14:37:54.460Z,87346.59
2022-08-17T14:40:24.367Z,87341.41
2022-08-17T14:42:53.960Z,87344.00
2022-08-17T14:45:31.723Z,87345.47
2022-08-17T14:48:01.379Z,87340.59
2022-08-17T14:50:28.619Z,87343.63
2022-08-17T14:52:55.835Z,87335.81
2022-08-17T14:55:25.415Z,87332.78
2022-08-17T14:57:53.073Z,87336.25
2022-08-17T15:00:20.406Z,87334.31
2022-08-17T15:02:52.914Z,87337.63
2022-08-17T15:05:27.526Z,87342.88
2022-08-17T15:07:54.707Z,87342.22
2022-08-17T15:10:22.514Z,87347.53
2022-08-17T15:12:50.262Z,87352.19
2022-08-17T15:15:18.492Z,87354.03
2022-08-17T15:17:46.253Z,87347.75
2022-08-17T15:20:27.620Z,87345.88
2022-08-17T15:26:54.323Z,87337.25
2022-08-17T15:29:21.526Z,87343.81
2022-08-17T15:31:48.774Z,87347.84
2022-08-17T15:34:16.049Z,87356.13
2022-08-17T15:36:49.261Z,87355.53
2022-08-17T15:39:19.667Z,87351.22
2022-08-17T15:41:47.123Z,87359.16
2022-08-17T15:44:32.704Z,87346.88
2022-08-17T15:47:02.446Z,87357.97
2022-08-17T15:49:29.664Z,87349.84
2022-08-17T15:51:56.822Z,87359.16
2022-08-17T15:54:23.975Z,87352.47
2022-08-17T15:56:51.409Z,87353.16
2022-08-17T15:59:18.563Z,87352.50
2022-08-17T16:03:01.430Z,87350.81
2022-08-17T16:04:33.115Z,87349.41
2022-08-17T16:07:00.725Z,87349.84
2022-08-17T16:09:28.424Z,87337.00
2022-08-17T16:11:56.498Z,87335.75
2022-08-17T16:14:25.349Z,87330.75
2022-08-17T16:17:04.286Z,87323.94
2022-08-17T16:19:33.255Z,87318.63
2022-08-17T16:22:00.519Z,87321.63
2022-08-17T16:24:28.268Z,87324.84
2022-08-17T16:26:55.531Z,87311.72
2022-08-17T16:29:23.346Z,87301.25
2022-08-17T16:31:51.155Z,87302.81
2022-08-17T16:34:18.794Z,87296.59
2022-08-17T16:36:55.473Z,87295.84
2022-08-17T16:39:28.156Z,87298.53
2022-08-17T16:41:56.609Z,87293.28
2022-08-17T16:44:24.620Z,87289.19
2022-08-17T16:46:51.802Z,87284.72
2022-08-17T16:49:24.472Z,87286.38
2022-08-17T16:52:10.036Z,87288.72
2022-08-17T16:54:44.382Z,87280.50
2022-08-17T16:57:16.027Z,87282.50
2022-08-17T16:59:48.132Z,87282.84
2022-08-17T17:02:31.565Z,87271.94
2022-08-17T17:05:13.680Z,87274.69
2022-08-17T17:08:08.702Z,87272.63
2022-08-17T17:11:03.586Z,87276.44
2022-08-17T17:13:57.994Z,87279.75
2022-08-17T17:16:40.207Z,87275.44
2022-08-17T17:19:34.468Z,87282.78
2022-08-17T17:22:13.859Z,87290.03
2022-08-17T17:25:14.781Z,87284.06
2022-08-17T17:28:05.979Z,87280.09
2022-08-17T17:31:02.084Z,87283.50
2022-08-17T17:33:41.180Z,87280.72
2022-08-17T17:36:37.400Z,87282.97
2022-08-17T17:39:25.661Z,87283.31
2022-08-17T17:42:00.179Z,87280.94
2022-08-17T17:44:46.891Z,87281.72
2022-08-17T17:47:20.590Z,87276.66
2022-08-17T17:49:47.852Z,87268.16
2022-08-17T17:52:48.621Z,87276.41
2022-08-17T17:55:53.741Z,87265.19
2022-08-17T17:58:42.924Z,87262.84
2022-08-17T18:01:54.205Z,87265.53
2022-08-17T18:04:43.405Z,87273.44
2022-08-17T18:07:42.728Z,87278.09
2022-08-17T18:10:30.367Z,87282.13
2022-08-17T18:13:17.382Z,87292.78
2022-08-17T18:15:52.438Z,87289.91
2022-08-17T18:18:38.167Z,87278.28
2022-08-17T18:21:16.846Z,87276.63
2022-08-17T18:23:52.312Z,87292.16
2022-08-17T18:26:43.790Z,87310.41
2022-08-17T18:29:41.614Z,87305.00
2022-08-17T18:32:24.831Z,87322.47
2022-08-17T18:35:01.829Z,87348.00
2022-08-17T18:38:19.959Z,87350.22
2022-08-17T18:41:00.635Z,87353.22
2022-08-17T18:43:53.002Z,87359.94
2022-08-17T18:46:37.645Z,87347.81
2022-08-17T18:49:28.148Z,87337.19
2022-08-17T18:52:26.063Z,87331.53
2022-08-17T18:55:24.141Z,87321.81
2022-08-17T18:57:59.635Z,87316.69
2022-08-17T19:00:39.394Z,87321.19
2022-08-17T19:03:16.103Z,87345.06
2022-08-17T19:06:15.958Z,87362.94
2022-08-17T19:08:43.307Z,87367.25
2022-08-17T19:11:21.338Z,87363.06
2022-08-17T19:14:08.949Z,87376.19
2022-08-17T19:16:43.930Z,87389.19
2022-08-17T19:19:27.155Z,87398.31
2022-08-17T19:22:28.735Z,87420.09
2022-08-17T19:25:21.891Z,87429.34
2022-08-17T19:27:57.286Z,87433.09
2022-08-17T19:30:25.752Z,87429.69
2022-08-17T19:32:53.007Z,87437.28
2022-08-17T19:35:24.774Z,87439.34
2022-08-17T19:38:03.234Z,87447.47
2022-08-17T19:41:00.601Z,87447.94
2022-08-17T19:44:15.936Z,87441.16
2022-08-17T19:47:06.387Z,87431.47
2022-08-17T19:49:48.994Z,87440.13
2022-08-17T19:52:37.580Z,87430.53
2022-08-17T19:55:20.574Z,87439.53
2022-08-17T19:58:03.337Z,87435.34
2022-08-17T20:00:34.664Z,87442.09
2022-08-17T20:03:16.208Z,87430.44
2022-08-17T20:09:18.432Z,87436.41
2022-08-17T20:11:55.498Z,87435.66
2022-08-17T20:14:37.953Z,87441.44
2022-08-17T20:17:05.934Z,87429.97
2022-08-17T20:19:50.367Z,87424.59
2022-08-17T20:22:51.869Z,87422.78
2022-08-17T20:25:44.652Z,87415.03
2022-08-17T20:28:30.918Z,87416.06
2022-08-17T20:30:59.343Z,87419.72
2022-08-17T20:33:37.118Z,87417.97
2022-08-17T20:36:18.074Z,87413.94
2022-08-17T20:38:58.093Z,87414.69
2022-08-17T20:41:30.487Z,87409.16
2022-08-17T20:43:57.928Z,87404.38
2022-08-17T20:46:37.450Z,87394.69
2022-08-17T20:49:21.923Z,87390.97
2022-08-17T20:52:01.601Z,87388.66
2022-08-17T20:54:42.793Z,87387.75
2022-08-17T20:57:29.993Z,87391.19
2022-08-17T21:00:09.678Z,87396.25
2022-08-17T21:02:37.262Z,87392.63
2022-08-17T21:05:34.309Z,87394.84
2022-08-17T21:08:12.503Z,87393.53
2022-08-17T21:10:41.822Z,87401.13
2022-08-17T21:13:09.373Z,87411.88
2022-08-17T21:15:43.650Z,87410.38
2022-08-17T21:18:11.248Z,87404.38
2022-08-17T21:21:04.698Z,87412.44
2022-08-17T21:23:50.309Z,87415.69
2022-08-17T21:26:50.351Z,87407.22
2022-08-17T21:29:33.820Z,87412.38
2022-08-17T21:32:05.533Z,87412.28
2022-08-17T21:34:43.836Z,87413.00
2022-08-17T21:37:23.375Z,87410.16
2022-08-17T21:40:11.321Z,87404.31
2022-08-17T21:42:55.848Z,87410.25
2022-08-17T21:45:31.956Z,87404.84
2022-08-17T21:48:10.795Z,87399.00
2022-08-17T21:50:39.751Z,87399.16
2022-08-17T21:53:08.692Z,87397.97
2022-08-17T21:55:37.351Z,87399.59
2022-08-17T21:58:36.827Z,87398.22
2022-08-17T22:01:20.936Z,87392.00
2022-08-17T22:04:03.051Z,87392.41
2022-08-17T22:06:39.758Z,87386.75
2022-08-17T22:09:10.325Z,87375.56
2022-08-17T22:12:00.909Z,87368.41
2022-08-17T22:14:52.154Z,87369.25
2022-08-17T22:17:27.240Z,87360.47
2022-08-17T22:19:59.672Z,87367.78
2022-08-17T22:22:32.539Z,87370.13
2022-08-17T22:25:05.851Z,87359.72
2022-08-17T22:27:51.460Z,87369.41
2022-08-17T22:30:34.580Z,87374.00
2022-08-17T22:33:37.413Z,87379.50
2022-08-17T22:36:23.259Z,87375.44
2022-08-17T22:38:53.984Z,87371.38
2022-08-17T22:41:39.807Z,87368.28
2022-08-17T22:44:32.146Z,87390.28
2022-08-17T22:47:22.360Z,87404.22
2022-08-17T22:49:56.909Z,87386.22
2022-08-17T22:52:38.164Z,87386.97
2022-08-17T22:55:13.977Z,87391.25
2022-08-17T22:57:47.935Z,87380.63
2022-08-17T23:00:31.862Z,87377.84
2022-08-17T23:03:11.663Z,87390.97
2022-08-17T23:05:41.420Z,87389.44
2022-08-17T23:08:09.288Z,87384.22
2022-08-17T23:10:36.947Z,87374.47
2022-08-17T23:13:04.636Z,87386.38
2022-08-17T23:15:32.181Z,87389.91
2022-08-17T23:18:01.010Z,87383.38
2022-08-17T23:20:28.517Z,87383.94
2022-08-17T23:22:56.168Z,87383.75
2022-08-17T23:25:27.920Z,87387.84
2022-08-17T23:27:56.714Z,87395.13
2022-08-17T23:30:24.693Z,87383.78
2022-08-17T23:32:54.323Z,87386.91
2022-08-17T23:35:40.097Z,87388.31
2022-08-17T23:38:10.201Z,87395.72
2022-08-17T23:40:39.342Z,87401.75
2022-08-17T23:43:11.477Z,87401.53
2022-08-17T23:45:54.252Z,87403.13
2022-08-17T23:48:28.611Z,87407.06
2022-08-17T23:51:08.034Z,87414.16
2022-08-17T23:53:39.330Z,87426.41
2022-08-17T23:56:10.381Z,87412.25
2022-08-17T23:58:43.612Z,87400.91
